Terminal Aerodrome Forecast
Issued by NWS Tampa Bay Area, FL

Home | Current Version | Previous Version | Text Only | Print | Product List | Glossary On
Versions: 1 2 3 4 5 6 7 8 9 10 11 12 13 14
000
FTUS42 KTBW 052330
TAFSRQ
TAF
KSRQ 052330Z 0600/0624 09011KT P6SM SCT035 BKN250
     FM060300 06005KT P6SM FEW030 BKN250
     FM061700 33004KT P6SM VCTS FEW025CB SCT250
     FM062000 29009KT P6SM SCT030 SCT250=

USA.gov is the U.S. government's official web portal to all federal, state and local government web resources and services.